createdAt,value
2018-07-09T00:01:33.938Z,99.90
2018-07-09T00:04:06.030Z,99.90
2018-07-09T00:06:38.011Z,99.90
2018-07-09T00:09:09.735Z,99.90
2018-07-09T00:11:41.620Z,99.90
2018-07-09T00:14:13.686Z,99.90
2018-07-09T00:16:45.439Z,99.90
2018-07-09T00:19:19.231Z,99.90
2018-07-09T00:21:51.094Z,99.90
2018-07-09T00:24:23.326Z,99.90
2018-07-09T00:26:55.102Z,99.90
2018-07-09T00:29:27.334Z,99.90
2018-07-09T00:31:59.319Z,99.90
2018-07-09T00:34:31.644Z,99.90
2018-07-09T00:37:03.614Z,99.90
2018-07-09T00:39:35.830Z,99.90
2018-07-09T00:42:08.342Z,99.90
2018-07-09T00:44:40.530Z,99.90
2018-07-09T00:47:12.817Z,99.90
2018-07-09T00:49:45.241Z,99.90
2018-07-09T00:52:17.011Z,99.90
2018-07-09T00:54:49.051Z,99.90
2018-07-09T00:59:52.999Z,99.90
2018-07-09T01:02:24.735Z,99.90
2018-07-09T01:07:28.274Z,99.90
2018-07-09T01:10:00.253Z,99.90
2018-07-09T01:12:32.075Z,99.90
2018-07-09T01:15:04.281Z,99.90
2018-07-09T01:17:36.211Z,99.90
2018-07-09T01:20:09.903Z,99.90
2018-07-09T01:22:41.926Z,99.90
2018-07-09T01:25:14.480Z,99.90
2018-07-09T01:30:17.797Z,99.90
2018-07-09T01:32:49.579Z,99.90
2018-07-09T01:35:21.762Z,99.90
2018-07-09T01:37:53.600Z,99.90
2018-07-09T01:40:25.711Z,99.90
2018-07-09T01:42:57.730Z,99.90
2018-07-09T01:45:29.735Z,99.90
2018-07-09T01:48:01.747Z,99.90
2018-07-09T01:50:33.508Z,99.90
2018-07-09T01:53:05.090Z,99.90
2018-07-09T01:55:37.497Z,99.90
2018-07-09T01:58:09.809Z,99.90
2018-07-09T02:00:41.788Z,99.90
2018-07-09T02:03:13.686Z,99.90
2018-07-09T02:05:45.837Z,99.90
2018-07-09T02:08:17.383Z,99.90
2018-07-09T02:10:49.207Z,99.90
2018-07-09T02:13:21.207Z,99.90
2018-07-09T02:15:53.766Z,99.90
2018-07-09T02:18:26.447Z,99.90
2018-07-09T02:23:31.560Z,99.90
2018-07-09T02:26:05.770Z,99.90
2018-07-09T02:31:12.584Z,99.90
2018-07-09T02:33:44.780Z,99.90
2018-07-09T02:38:51.161Z,99.90
2018-07-09T02:41:23.553Z,99.90
2018-07-09T02:49:01.766Z,99.70
2018-07-09T02:56:39.813Z,99.50
2018-07-09T02:59:12.005Z,99.30
2018-07-09T03:01:47.559Z,99.00
2018-07-09T03:04:20.477Z,98.80
2018-07-09T03:06:54.080Z,98.70
2018-07-09T03:09:25.980Z,98.70
2018-07-09T03:14:33.759Z,98.60
2018-07-09T03:17:05.698Z,98.60
2018-07-09T03:19:39.395Z,98.30
2018-07-09T03:22:12.874Z,98.20
2018-07-09T03:24:46.006Z,98.10
2018-07-09T03:27:18.561Z,97.90
2018-07-09T03:29:50.853Z,97.60
2018-07-09T03:32:24.146Z,97.40
2018-07-09T03:34:58.296Z,97.50
2018-07-09T03:37:31.599Z,97.20
2018-07-09T03:40:03.318Z,96.90
2018-07-09T03:42:35.906Z,96.90
2018-07-09T03:45:07.814Z,96.90
2018-07-09T03:50:10.879Z,96.60
2018-07-09T03:52:42.854Z,96.40
2018-07-09T03:55:16.268Z,96.40
2018-07-09T03:57:49.726Z,96.30
2018-07-09T04:02:57.225Z,96.20
2018-07-09T04:08:02.190Z,95.90
2018-07-09T04:10:34.479Z,95.80
2018-07-09T04:13:06.717Z,95.60
2018-07-09T04:15:41.672Z,95.20
2018-07-09T04:18:15.403Z,94.90
2018-07-09T04:20:47.616Z,94.70
2018-07-09T04:23:22.689Z,94.40
2018-07-09T04:25:55.780Z,94.30
2018-07-09T04:28:29.109Z,94.00
2018-07-09T04:31:01.662Z,93.80
2018-07-09T04:33:34.254Z,93.50
2018-07-09T04:36:11.603Z,93.30
2018-07-09T04:38:46.245Z,92.90
2018-07-09T04:41:18.025Z,92.70
2018-07-09T04:43:51.181Z,92.60
2018-07-09T04:46:22.902Z,92.60
2018-07-09T04:48:55.819Z,92.30
2018-07-09T04:54:01.538Z,91.20
2018-07-09T04:56:33.565Z,90.30
2018-07-09T04:59:05.933Z,87.50
2018-07-09T05:01:39.979Z,85.90
2018-07-09T05:04:15.433Z,84.50
2018-07-09T05:06:47.882Z,82.70
2018-07-09T05:09:20.531Z,79.70
2018-07-09T05:11:54.049Z,79.90
2018-07-09T05:17:03.204Z,79.90
2018-07-09T05:19:36.609Z,79.80
2018-07-09T05:22:08.822Z,79.80
2018-07-09T05:24:42.596Z,79.20
2018-07-09T05:27:18.011Z,78.10
2018-07-09T05:29:50.389Z,75.80
2018-07-09T05:32:22.004Z,73.70
2018-07-09T05:34:55.238Z,71.70
2018-07-09T05:37:30.745Z,71.60
2018-07-09T05:40:05.788Z,69.90
2018-07-09T05:42:39.569Z,68.00
2018-07-09T05:45:13.201Z,66.30
2018-07-09T05:47:47.359Z,65.80
2018-07-09T05:50:20.265Z,66.90
2018-07-09T05:52:52.224Z,66.60
2018-07-09T05:55:24.454Z,67.40
2018-07-09T05:57:56.524Z,67.30
2018-07-09T06:00:29.806Z,68.60
2018-07-09T06:03:01.760Z,66.40
2018-07-09T06:05:36.080Z,65.20
2018-07-09T06:08:09.483Z,65.70
2018-07-09T06:10:42.947Z,66.10
2018-07-09T06:13:14.735Z,63.30
2018-07-09T06:15:47.411Z,61.70
2018-07-09T06:18:20.485Z,59.40
2018-07-09T06:20:54.115Z,58.70
2018-07-09T06:23:25.891Z,57.90
2018-07-09T06:26:00.135Z,57.70
2018-07-09T06:28:33.795Z,56.50
2018-07-09T06:31:07.183Z,56.20
2018-07-09T06:33:39.423Z,55.80
2018-07-09T06:38:43.537Z,55.30
2018-07-09T06:41:19.540Z,56.40
2018-07-09T06:43:51.848Z,56.80
2018-07-09T06:49:00.702Z,56.20
2018-07-09T06:51:33.915Z,56.40
2018-07-09T06:54:05.731Z,56.40
2018-07-09T06:56:39.559Z,57.10
2018-07-09T06:59:13.596Z,56.50
2018-07-09T07:01:47.442Z,55.80
2018-07-09T07:04:19.548Z,56.40
2018-07-09T07:06:51.920Z,56.80
2018-07-09T07:14:31.959Z,56.30
2018-07-09T07:17:05.720Z,56.00
2018-07-09T07:19:38.807Z,55.60
2018-07-09T07:22:11.536Z,54.40
2018-07-09T07:24:43.869Z,54.00
2018-07-09T07:29:50.487Z,53.60
2018-07-09T07:37:25.998Z,56.80
2018-07-09T07:39:58.113Z,61.60
2018-07-09T07:42:33.514Z,66.90
2018-07-09T07:45:07.883Z,68.90
2018-07-09T07:47:43.607Z,68.80
2018-07-09T07:50:15.542Z,70.60
2018-07-09T07:52:47.547Z,73.40
2018-07-09T07:55:19.358Z,76.00
2018-07-09T07:57:51.999Z,76.40
2018-07-09T08:00:23.920Z,76.40
2018-07-09T08:02:56.004Z,77.90
2018-07-09T08:05:27.861Z,79.90
2018-07-09T08:07:59.640Z,80.10
2018-07-09T08:10:31.384Z,80.90
2018-07-09T08:15:34.098Z,82.20
2018-07-09T08:18:06.179Z,81.80
2018-07-09T08:20:38.115Z,81.40
2018-07-09T08:23:10.540Z,83.20
2018-07-09T08:25:42.497Z,85.30
2018-07-09T08:28:16.406Z,86.40
2018-07-09T08:30:48.070Z,86.00
2018-07-09T08:33:20.047Z,86.60
2018-07-09T08:35:52.094Z,87.10
2018-07-09T08:38:24.062Z,87.20
2018-07-09T08:40:55.823Z,87.30
2018-07-09T08:48:30.398Z,85.30
2018-07-09T08:51:02.144Z,84.50
2018-07-09T08:53:34.195Z,84.70
2018-07-09T08:56:06.000Z,85.20
2018-07-09T08:58:38.278Z,82.70
2018-07-09T09:03:41.390Z,85.80
2018-07-09T09:06:13.250Z,83.70
2018-07-09T09:08:45.303Z,84.90
2018-07-09T09:11:17.119Z,85.30
2018-07-09T09:13:49.413Z,85.20
2018-07-09T09:16:21.290Z,85.70
2018-07-09T09:18:54.776Z,85.00
2018-07-09T09:21:26.766Z,84.20
2018-07-09T09:23:58.940Z,84.40
2018-07-09T09:26:30.966Z,83.60
2018-07-09T09:29:04.590Z,84.10
2018-07-09T09:31:36.741Z,84.30
2018-07-09T09:34:08.847Z,84.60
2018-07-09T09:36:40.813Z,84.30
2018-07-09T09:39:12.711Z,87.20
2018-07-09T09:41:44.819Z,86.30
2018-07-09T09:44:17.062Z,85.60
2018-07-09T09:51:50.930Z,87.60
2018-07-09T09:54:23.147Z,88.20
2018-07-09T09:56:55.540Z,87.90
2018-07-09T09:59:27.769Z,88.20
2018-07-09T10:01:59.472Z,88.80
2018-07-09T10:04:32.430Z,89.20
2018-07-09T10:07:04.626Z,89.90
2018-07-09T10:09:36.827Z,90.30
2018-07-09T10:12:09.579Z,91.30
2018-07-09T10:14:41.707Z,91.10
2018-07-09T10:17:13.530Z,91.00
2018-07-09T10:22:16.629Z,91.70
2018-07-09T10:24:48.560Z,91.70
2018-07-09T10:27:20.439Z,91.90
2018-07-09T10:29:54.244Z,91.50
2018-07-09T10:32:26.254Z,92.10
2018-07-09T10:34:58.407Z,91.90
2018-07-09T10:37:30.618Z,91.70
2018-07-09T10:40:03.268Z,92.00
2018-07-09T10:42:35.223Z,92.10
2018-07-09T10:45:07.426Z,92.30
2018-07-09T10:47:39.599Z,93.10
2018-07-09T10:50:11.519Z,93.10
2018-07-09T10:52:43.512Z,93.10
2018-07-09T10:55:15.850Z,92.70
2018-07-09T10:57:47.602Z,92.70
2018-07-09T11:00:19.771Z,92.50
2018-07-09T11:02:51.430Z,92.40
2018-07-09T11:05:23.699Z,92.50
2018-07-09T11:07:55.579Z,92.20
2018-07-09T11:10:27.779Z,92.90
2018-07-09T11:12:59.737Z,93.00
2018-07-09T11:15:32.198Z,93.40
2018-07-09T11:18:04.051Z,93.60
2018-07-09T11:20:36.349Z,93.50
2018-07-09T11:23:08.266Z,93.20
2018-07-09T11:25:40.414Z,92.40
2018-07-09T11:28:12.297Z,92.50
2018-07-09T11:30:45.498Z,92.60
2018-07-09T11:33:17.240Z,91.80
2018-07-09T11:35:49.299Z,92.20
2018-07-09T11:38:21.317Z,92.60
2018-07-09T11:40:53.834Z,92.60
2018-07-09T11:43:25.662Z,92.90
2018-07-09T11:50:59.182Z,93.60
2018-07-09T11:53:31.038Z,94.40
2018-07-09T11:56:02.984Z,94.80
2018-07-09T11:58:35.114Z,96.00
2018-07-09T12:01:07.234Z,97.00
2018-07-09T12:03:39.410Z,99.90
2018-07-09T12:06:11.835Z,99.90
2018-07-09T12:11:15.294Z,99.90
2018-07-09T12:13:47.139Z,99.90
2018-07-09T12:16:19.065Z,99.90
2018-07-09T12:18:51.174Z,99.90
2018-07-09T12:21:22.780Z,99.90
2018-07-09T12:23:54.393Z,99.90
2018-07-09T12:26:26.579Z,99.90
2018-07-09T12:28:58.467Z,99.90
2018-07-09T12:31:31.667Z,99.90
2018-07-09T12:34:03.718Z,99.90
2018-07-09T12:36:36.059Z,99.90
2018-07-09T12:39:11.417Z,99.90
2018-07-09T12:41:43.691Z,99.90
2018-07-09T12:44:15.400Z,99.90
2018-07-09T12:49:18.402Z,99.90
2018-07-09T12:51:50.523Z,99.90
2018-07-09T12:54:22.523Z,99.90
2018-07-09T12:56:54.511Z,99.90
2018-07-09T12:59:26.318Z,99.90
2018-07-09T13:01:59.661Z,99.90
2018-07-09T13:04:31.684Z,99.90
2018-07-09T13:07:03.828Z,99.90
2018-07-09T13:09:35.706Z,99.90
2018-07-09T13:12:09.262Z,99.90
2018-07-09T13:14:41.547Z,99.90
2018-07-09T13:17:13.780Z,99.90
2018-07-09T13:19:45.818Z,99.90
2018-07-09T13:22:17.827Z,99.90
2018-07-09T13:24:49.719Z,99.90
2018-07-09T13:27:21.990Z,99.90
2018-07-09T13:29:53.945Z,99.90
2018-07-09T13:32:26.645Z,99.90
2018-07-09T13:34:58.390Z,99.90
2018-07-09T13:37:30.266Z,99.90
2018-07-09T13:40:02.252Z,99.90
2018-07-09T13:42:34.187Z,99.90
2018-07-09T13:45:06.651Z,99.90
2018-07-09T13:47:38.634Z,99.90
2018-07-09T13:50:10.256Z,99.90
2018-07-09T13:52:42.575Z,99.90
2018-07-09T13:55:14.728Z,99.90
2018-07-09T13:57:46.707Z,99.90
2018-07-09T14:00:18.598Z,99.90
2018-07-09T14:02:50.405Z,99.90
2018-07-09T14:05:22.071Z,99.90
2018-07-09T14:07:54.186Z,99.90
2018-07-09T14:10:26.122Z,99.90
2018-07-09T14:12:57.773Z,99.90
2018-07-09T14:18:00.815Z,99.90
2018-07-09T14:20:34.689Z,99.90
2018-07-09T14:23:07.611Z,99.90
2018-07-09T14:25:39.438Z,99.90
2018-07-09T14:28:11.384Z,99.90
2018-07-09T14:30:43.265Z,99.90
2018-07-09T14:33:15.737Z,99.90
2018-07-09T14:35:47.563Z,99.90
2018-07-09T14:38:19.614Z,99.90
2018-07-09T14:40:51.370Z,99.90
2018-07-09T14:43:23.363Z,99.90
2018-07-09T14:45:55.254Z,99.90
2018-07-09T14:48:27.262Z,99.90
2018-07-09T14:50:59.276Z,99.90
2018-07-09T14:53:31.162Z,99.90
2018-07-09T14:56:02.824Z,99.90
2018-07-09T15:01:05.518Z,99.90
2018-07-09T15:03:37.647Z,99.90
2018-07-09T15:06:09.350Z,99.90
2018-07-09T15:08:42.321Z,99.90
2018-07-09T15:11:14.005Z,99.90
2018-07-09T15:13:46.046Z,99.10
2018-07-09T15:16:17.814Z,99.10
2018-07-09T15:18:49.548Z,99.50
2018-07-09T15:23:52.584Z,99.90
2018-07-09T15:26:24.518Z,99.70
2018-07-09T15:31:27.430Z,98.90
2018-07-09T15:34:00.530Z,98.80
2018-07-09T15:39:04.939Z,98.50
2018-07-09T15:41:36.823Z,98.30
2018-07-09T15:44:08.482Z,98.20
2018-07-09T15:46:40.108Z,98.30
2018-07-09T15:49:12.186Z,98.40
2018-07-09T15:51:43.949Z,98.50
2018-07-09T15:54:15.806Z,98.40
2018-07-09T15:56:47.414Z,98.30
2018-07-09T15:59:19.495Z,99.10
2018-07-09T16:01:51.363Z,99.70
2018-07-09T16:04:23.293Z,99.90
2018-07-09T16:06:55.291Z,99.90
2018-07-09T16:09:27.567Z,99.90
2018-07-09T16:11:59.527Z,99.90
2018-07-09T16:14:31.669Z,99.90
2018-07-09T16:17:03.142Z,99.90
2018-07-09T16:19:35.378Z,99.30
2018-07-09T16:22:07.153Z,99.30
2018-07-09T16:24:39.219Z,99.10
2018-07-09T16:27:10.971Z,99.10
2018-07-09T16:29:43.007Z,99.10
2018-07-09T16:32:14.939Z,99.20
2018-07-09T16:34:48.045Z,99.00
2018-07-09T16:37:20.420Z,99.00
2018-07-09T16:39:52.650Z,99.30
2018-07-09T16:42:23.966Z,98.90
2018-07-09T16:44:55.984Z,98.90
2018-07-09T16:47:27.638Z,98.80
2018-07-09T16:50:00.017Z,98.70
2018-07-09T16:52:31.763Z,98.50
2018-07-09T16:55:03.608Z,98.60
2018-07-09T16:57:35.221Z,98.50
2018-07-09T17:00:07.576Z,98.30
2018-07-09T17:02:39.157Z,98.10
2018-07-09T17:05:11.010Z,97.10
2018-07-09T17:07:42.948Z,96.60
2018-07-09T17:10:14.779Z,96.30
2018-07-09T17:12:46.319Z,96.10
2018-07-09T17:15:18.282Z,95.80
2018-07-09T17:20:21.071Z,95.10
2018-07-09T17:22:52.726Z,95.00
2018-07-09T17:25:25.231Z,95.20
2018-07-09T17:27:56.835Z,94.80
2018-07-09T17:30:29.416Z,94.40
2018-07-09T17:33:01.306Z,94.30
2018-07-09T17:35:34.250Z,94.40
2018-07-09T17:38:06.207Z,94.20
2018-07-09T17:40:37.951Z,94.10
2018-07-09T17:43:09.587Z,93.70
2018-07-09T17:45:41.723Z,93.50
2018-07-09T17:48:13.611Z,93.60
2018-07-09T17:50:45.347Z,93.70
2018-07-09T17:53:16.892Z,93.50
2018-07-09T17:55:48.914Z,93.40
2018-07-09T17:58:20.850Z,93.30
2018-07-09T18:00:52.747Z,94.50
2018-07-09T18:03:24.486Z,94.50
2018-07-09T18:05:56.130Z,94.10
2018-07-09T18:11:00.517Z,95.00
2018-07-09T18:13:32.309Z,95.40
2018-07-09T18:16:04.266Z,95.50
2018-07-09T18:18:35.839Z,95.70
2018-07-09T18:21:07.994Z,95.60
2018-07-09T18:23:39.854Z,95.60
2018-07-09T18:26:11.958Z,98.00
2018-07-09T18:28:43.444Z,99.30
2018-07-09T18:31:15.303Z,98.10
2018-07-09T18:33:47.051Z,96.70
2018-07-09T18:36:19.167Z,96.90
2018-07-09T18:38:51.021Z,97.00
2018-07-09T18:48:55.488Z,98.80
2018-07-09T18:51:27.408Z,99.10
2018-07-09T18:53:59.264Z,98.70
2018-07-09T18:56:31.490Z,98.80
2018-07-09T18:59:03.362Z,99.90
2018-07-09T19:01:35.490Z,99.90
2018-07-09T19:06:50.575Z,99.90
2018-07-09T19:09:24.343Z,99.90
2018-07-09T19:18:16.044Z,99.00
2018-07-09T19:21:30.761Z,99.80
2018-07-09T19:24:00.850Z,99.80
2018-07-09T19:26:30.217Z,99.70
2018-07-09T19:29:02.079Z,99.90
2018-07-09T19:31:31.199Z,99.90
2018-07-09T19:34:00.711Z,99.90
2018-07-09T19:36:30.313Z,99.90
2018-07-09T19:38:59.730Z,99.90
2018-07-09T19:41:28.718Z,99.90
2018-07-09T19:43:58.167Z,99.90
2018-07-09T19:46:27.484Z,99.90
2018-07-09T19:51:27.027Z,99.90
2018-07-09T19:53:56.451Z,99.90
2018-07-09T19:56:25.950Z,99.90
2018-07-09T20:01:24.616Z,99.90
2018-07-09T20:03:54.169Z,99.90
2018-07-09T20:06:23.459Z,99.90
2018-07-09T20:11:33.435Z,99.90
2018-07-09T20:15:07.316Z,99.90
2018-07-09T20:17:37.795Z,99.90
2018-07-09T20:20:07.358Z,99.90
2018-07-09T20:22:36.764Z,99.90
2018-07-09T20:25:06.303Z,99.90
2018-07-09T20:27:35.453Z,99.90
2018-07-09T20:30:05.294Z,99.90
2018-07-09T20:32:34.573Z,99.90
2018-07-09T20:35:03.815Z,99.90
2018-07-09T20:37:33.142Z,99.90
2018-07-09T20:40:02.369Z,99.90
2018-07-09T20:42:31.992Z,99.90
2018-07-09T20:45:01.455Z,99.90
2018-07-09T20:47:30.574Z,99.90
2018-07-09T20:49:59.927Z,99.90
2018-07-09T20:52:29.633Z,99.90
2018-07-09T20:54:58.805Z,99.90
2018-07-09T20:57:28.107Z,99.90
2018-07-09T20:59:57.770Z,99.90
2018-07-09T21:02:26.950Z,99.90
2018-07-09T21:04:56.442Z,99.90
2018-07-09T21:07:26.086Z,99.90
2018-07-09T21:09:55.278Z,99.90
2018-07-09T21:12:25.836Z,99.90
2018-07-09T21:14:55.424Z,99.90
2018-07-09T21:17:25.219Z,99.90
2018-07-09T21:22:24.189Z,99.90
2018-07-09T21:24:53.639Z,99.90
2018-07-09T21:27:23.071Z,99.90
2018-07-09T21:32:22.227Z,99.90
2018-07-09T21:34:51.430Z,99.90
2018-07-09T21:39:49.842Z,99.90
2018-07-09T21:42:19.223Z,99.90
2018-07-09T21:44:48.546Z,99.90
2018-07-09T21:47:17.825Z,99.90
2018-07-09T21:49:47.400Z,99.90
2018-07-09T21:52:16.566Z,99.90
2018-07-09T21:54:45.550Z,99.90
2018-07-09T21:57:15.022Z,99.90
2018-07-09T21:59:44.339Z,99.90
2018-07-09T22:02:13.644Z,99.90
2018-07-09T22:04:43.099Z,99.90
2018-07-09T22:07:12.179Z,99.90
2018-07-09T22:09:41.166Z,99.90
2018-07-09T22:12:10.412Z,99.90
2018-07-09T22:14:40.919Z,99.90
2018-07-09T22:17:10.000Z,99.90
2018-07-09T22:22:09.102Z,99.90
2018-07-09T22:24:38.279Z,99.90
2018-07-09T22:27:08.403Z,99.90
2018-07-09T22:29:37.697Z,99.90
2018-07-09T22:32:09.518Z,99.90
2018-07-09T22:34:41.118Z,99.90
2018-07-09T22:37:13.183Z,99.90
2018-07-09T22:39:44.662Z,99.90
2018-07-09T22:42:16.469Z,99.90
2018-07-09T22:44:47.951Z,99.90
2018-07-09T22:47:19.710Z,99.90
2018-07-09T22:52:22.666Z,99.90
2018-07-09T22:55:04.256Z,99.90
2018-07-09T22:57:36.423Z,99.90
2018-07-09T23:02:38.993Z,99.90
2018-07-09T23:05:11.030Z,99.90
2018-07-09T23:07:43.311Z,99.90
2018-07-09T23:11:28.475Z,99.90
2018-07-09T23:16:47.588Z,99.90
2018-07-09T23:19:29.958Z,99.90
2018-07-09T23:24:35.122Z,99.90
2018-07-09T23:27:04.475Z,99.90
2018-07-09T23:29:33.971Z,99.90
2018-07-09T23:32:03.455Z,99.90
2018-07-09T23:34:32.880Z,99.90
2018-07-09T23:39:32.316Z,99.90
2018-07-09T23:42:01.641Z,99.90
2018-07-09T23:44:31.637Z,99.90
2018-07-09T23:47:00.952Z,99.90
2018-07-09T23:49:30.531Z,99.90
2018-07-09T23:52:00.291Z,99.90
2018-07-09T23:54:29.818Z,99.90
2018-07-09T23:59:28.121Z,99.90
